Portada
METAR-TAF:

METAR-TAF

Aeropuertos :

Aeropuerto de Fukuoka

Fukuoka, Japón

latitud: 33-35N, longitud: 130-27E, altitud: 9 m

Observación

El informe se hizo hace 38 minutos, a las 09:30 UTC
Viento 4 kt del norte-noroeste, variando entre oeste y norte
Temperatura 10°C
Humedad 57%
Presión 1028 hPa
Visibilidad 10 km o más
Escasas nubes a una altura de 4000 ft
Cielo nuboso

METAR: RJFF 190930Z 33004KT 280V360 9999 FEW040 BKN/// 10/02 Q1028 NOSIG

Hora: 19:08 (10:08 UTC)

Pronóstico

El informe se hizo hace 5 horas y 3 minutos, a las 05:05 UTC
Pronóstico válido del 19 a las 06 UTC al 20 a las 12 UTC
Viento 7 kt del norte-noroeste
Visibilidad 10 km o más
Escasas nubes a una altura de 3000 ft
Evolucionando progresivamente
del 19 a las 10 UTC al 19 a las 12 UTC
Viento 4 kt del sureste
Evolucionando progresivamente
del 20 a las 00 UTC al 20 a las 03 UTC
Viento 8 kt del norte

TAF: RJFF 190505Z 1906/2012 33007KT 9999 FEW030 BECMG 1910/1912 14004KT BECMG 2000/2003 01008KT

Observaciones y pronósticos meteorológicos de más de 4000 aeropuertos (mensajes METAR y TAF).

Los puntos amarillos y rojos representan las estaciones disponibles.

Ponga el ratón en el punto deseado para ver el nombre de la estación.

Haga clic para ver las observaciones y los pronósticos meteorológicos.

Para cambiar el mapa : haga clic en los botones verdes con una cruz de color negro para hacer un zoom, en el botón verde con un guión para alejar o en las flechas verdes para mapas adyacentes.


METAR-TAF: